createdAt,value
2019-05-14T00:00:23.633Z,0.00
2019-05-14T00:01:23.655Z,0.00
2019-05-14T00:02:23.678Z,0.00
2019-05-14T00:03:23.700Z,0.00
2019-05-14T00:04:23.730Z,0.00
2019-05-14T00:05:23.755Z,0.00
2019-05-14T00:06:23.773Z,0.00
2019-05-14T00:07:23.799Z,0.00
2019-05-14T00:08:23.823Z,0.00
2019-05-14T00:09:23.849Z,0.00
2019-05-14T00:10:23.875Z,0.00
2019-05-14T00:11:23.899Z,0.00
2019-05-14T00:12:23.922Z,0.00
2019-05-14T00:13:23.948Z,0.00
2019-05-14T00:14:36.512Z,0.00
2019-05-14T00:15:24.008Z,0.00
2019-05-14T00:16:24.396Z,0.00
2019-05-14T00:17:24.051Z,0.00
2019-05-14T00:18:24.070Z,0.00
2019-05-14T00:19:24.095Z,0.00
2019-05-14T00:20:24.120Z,0.00
2019-05-14T00:21:24.144Z,0.00
2019-05-14T00:22:24.167Z,0.00
2019-05-14T00:23:24.195Z,0.00
2019-05-14T00:24:24.222Z,0.00
2019-05-14T00:25:24.246Z,0.00
2019-05-14T00:26:24.266Z,0.00
2019-05-14T00:27:24.291Z,0.00
2019-05-14T00:28:24.319Z,0.00
2019-05-14T00:29:24.351Z,0.00
2019-05-14T00:30:24.369Z,0.00
2019-05-14T00:31:24.392Z,0.00
2019-05-14T00:32:24.414Z,0.00
2019-05-14T00:33:24.437Z,0.00
2019-05-14T00:34:24.464Z,0.00
2019-05-14T00:35:24.490Z,0.00
2019-05-14T00:36:24.518Z,0.00
2019-05-14T00:37:24.542Z,0.00
2019-05-14T00:38:24.563Z,0.00
2019-05-14T00:39:24.587Z,0.00
2019-05-14T00:40:24.610Z,0.00
2019-05-14T00:41:24.637Z,0.00
2019-05-14T00:42:24.676Z,0.00
2019-05-14T00:43:24.686Z,0.00
2019-05-14T00:44:24.714Z,0.00
2019-05-14T00:45:24.740Z,0.00
2019-05-14T00:46:24.760Z,0.00
2019-05-14T00:47:24.783Z,0.00
2019-05-14T00:48:24.809Z,0.00
2019-05-14T00:49:24.836Z,0.00
2019-05-14T00:50:24.857Z,0.00
2019-05-14T00:51:24.880Z,0.00
2019-05-14T00:52:24.906Z,0.00
2019-05-14T00:53:24.935Z,0.00
2019-05-14T00:54:24.953Z,0.00
2019-05-14T00:55:24.981Z,0.00
2019-05-14T00:56:25.005Z,0.00
2019-05-14T00:57:25.029Z,0.00
2019-05-14T00:58:25.059Z,0.00
2019-05-14T00:59:25.078Z,0.00
2019-05-14T01:00:25.107Z,0.00
2019-05-14T01:01:25.125Z,0.00
2019-05-14T01:02:25.150Z,0.00
2019-05-14T01:03:25.176Z,0.00
2019-05-14T01:04:25.203Z,0.00
2019-05-14T01:05:25.240Z,0.00
2019-05-14T01:06:25.252Z,0.00
2019-05-14T01:07:25.279Z,0.00
2019-05-14T01:08:25.300Z,0.00
2019-05-14T01:09:25.327Z,0.00
2019-05-14T01:10:25.347Z,0.00
2019-05-14T01:11:25.370Z,0.00
2019-05-14T01:12:25.391Z,0.00
2019-05-14T01:13:25.415Z,0.00
2019-05-14T01:14:25.442Z,0.00
2019-05-14T01:15:25.482Z,0.00
2019-05-14T01:16:25.491Z,0.00
2019-05-14T01:17:25.521Z,0.00
2019-05-14T01:18:25.537Z,0.00
2019-05-14T01:19:25.567Z,0.00
2019-05-14T01:20:25.587Z,0.00
2019-05-14T01:21:25.610Z,0.00
2019-05-14T01:22:25.655Z,0.00
2019-05-14T01:23:25.660Z,0.00
2019-05-14T01:24:25.691Z,0.00
2019-05-14T01:25:25.724Z,0.00
2019-05-14T01:26:25.733Z,0.00
2019-05-14T01:27:25.753Z,0.00
2019-05-14T01:28:25.781Z,0.00
2019-05-14T01:29:25.803Z,0.00
2019-05-14T01:30:28.453Z,0.00
2019-05-14T01:31:25.866Z,0.00
2019-05-14T01:32:25.879Z,0.00
2019-05-14T01:33:25.910Z,0.00
2019-05-14T01:34:25.927Z,0.00
2019-05-14T01:35:25.950Z,0.00
2019-05-14T01:36:25.977Z,0.00
2019-05-14T01:37:25.998Z,0.00
2019-05-14T01:38:26.022Z,0.00
2019-05-14T01:39:26.049Z,0.00
2019-05-14T01:40:26.075Z,0.00
2019-05-14T01:41:26.100Z,0.00
2019-05-14T01:42:26.121Z,0.00
2019-05-14T01:43:26.146Z,0.00
2019-05-14T01:44:26.172Z,0.00
2019-05-14T01:45:28.415Z,0.00
2019-05-14T01:46:26.219Z,0.00
2019-05-14T01:47:26.243Z,0.00
2019-05-14T01:48:26.266Z,0.00
2019-05-14T01:49:26.292Z,0.00
2019-05-14T01:50:26.314Z,0.00
2019-05-14T01:51:26.342Z,0.00
2019-05-14T01:52:26.365Z,0.00
2019-05-14T01:53:26.389Z,0.00
2019-05-14T01:54:26.412Z,0.00
2019-05-14T01:55:26.436Z,0.00
2019-05-14T01:56:26.464Z,0.00
2019-05-14T01:57:26.486Z,0.00
2019-05-14T01:58:26.517Z,0.00
2019-05-14T01:59:26.533Z,0.00
2019-05-14T02:00:26.562Z,0.00
2019-05-14T02:01:26.584Z,0.00
2019-05-14T02:02:26.609Z,0.00
2019-05-14T02:03:26.633Z,0.00
2019-05-14T02:04:26.658Z,0.00
2019-05-14T02:05:26.678Z,0.00
2019-05-14T02:06:26.704Z,0.00
2019-05-14T02:07:26.732Z,0.00
2019-05-14T02:08:26.755Z,0.00
2019-05-14T02:09:26.785Z,0.00
2019-05-14T02:10:26.803Z,0.00
2019-05-14T02:11:26.834Z,0.00
2019-05-14T02:12:26.857Z,0.00
2019-05-14T02:13:26.874Z,0.00
2019-05-14T02:14:26.900Z,0.00
2019-05-14T02:15:37.129Z,0.00
2019-05-14T02:16:26.950Z,0.00
2019-05-14T02:17:26.978Z,0.00
2019-05-14T02:18:26.995Z,0.00
2019-05-14T02:19:27.020Z,0.00
2019-05-14T02:20:27.047Z,0.00
2019-05-14T02:21:27.070Z,0.00
2019-05-14T02:22:27.093Z,0.00
2019-05-14T02:23:27.117Z,0.00
2019-05-14T02:24:27.150Z,0.00
2019-05-14T02:25:27.167Z,0.00
2019-05-14T02:26:27.196Z,0.00
2019-05-14T02:27:27.219Z,0.00
2019-05-14T02:28:27.242Z,0.00
2019-05-14T02:29:27.263Z,0.00
2019-05-14T02:30:38.512Z,0.00
2019-05-14T02:31:29.233Z,0.00
2019-05-14T02:32:29.764Z,0.00
2019-05-14T02:33:30.479Z,0.00
2019-05-14T02:34:29.969Z,0.00
2019-05-14T02:35:29.772Z,0.00
2019-05-14T02:36:30.655Z,0.00
2019-05-14T02:37:30.110Z,0.00
2019-05-14T02:38:29.909Z,0.00
2019-05-14T02:39:29.210Z,0.00
2019-05-14T02:40:29.428Z,0.00
2019-05-14T02:41:29.944Z,0.00
2019-05-14T02:42:29.014Z,0.00
2019-05-14T02:43:29.296Z,0.00
2019-05-14T02:44:29.762Z,0.00
2019-05-14T02:45:30.410Z,0.00
2019-05-14T02:46:29.602Z,0.00
2019-05-14T02:47:29.866Z,0.00
2019-05-14T02:48:29.270Z,0.00
2019-05-14T02:49:30.033Z,0.00
2019-05-14T02:50:29.507Z,0.00
2019-05-14T02:51:30.021Z,0.00
2019-05-14T02:52:29.139Z,0.00
2019-05-14T02:53:29.700Z,0.00
2019-05-14T02:54:29.744Z,0.00
2019-05-14T02:55:29.919Z,0.00
2019-05-14T02:56:29.554Z,0.00
2019-05-14T02:57:30.406Z,0.00
2019-05-14T02:58:29.805Z,4.00
2019-05-14T02:59:30.567Z,4.00
2019-05-14T03:00:30.173Z,4.00
2019-05-14T03:01:30.118Z,0.00
2019-05-14T03:02:29.712Z,4.00
2019-05-14T03:03:29.907Z,4.00
2019-05-14T03:04:29.976Z,4.00
2019-05-14T03:05:29.492Z,4.00
2019-05-14T03:06:29.143Z,8.00
2019-05-14T03:07:29.842Z,4.00
2019-05-14T03:08:30.389Z,8.00
2019-05-14T03:09:29.404Z,8.00
2019-05-14T03:10:30.288Z,8.00
2019-05-14T03:11:29.713Z,8.00
2019-05-14T03:12:30.264Z,8.00
2019-05-14T03:13:29.560Z,12.00
2019-05-14T03:14:30.298Z,12.00
2019-05-14T03:15:29.308Z,16.00
2019-05-14T03:16:34.615Z,20.00
2019-05-14T03:17:29.978Z,20.00
2019-05-14T03:18:29.667Z,20.00
2019-05-14T03:19:29.820Z,24.00
2019-05-14T03:20:29.091Z,28.00
2019-05-14T03:21:30.468Z,28.00
2019-05-14T03:22:43.610Z,32.00
2019-05-14T03:23:30.178Z,36.00
2019-05-14T03:24:28.929Z,40.00
2019-05-14T03:25:30.085Z,40.00
2019-05-14T03:26:29.582Z,44.00
2019-05-14T03:27:30.543Z,48.00
2019-05-14T03:28:30.407Z,52.00
2019-05-14T03:29:30.698Z,60.00
2019-05-14T03:30:32.410Z,64.00
2019-05-14T03:31:32.975Z,72.00
2019-05-14T03:32:32.948Z,76.00
2019-05-14T03:33:33.552Z,80.00
2019-05-14T03:34:32.809Z,88.00
2019-05-14T03:35:40.866Z,96.00
2019-05-14T03:36:33.974Z,108.00
2019-05-14T03:37:30.907Z,112.00
2019-05-14T03:38:29.755Z,124.00
2019-05-14T03:39:29.678Z,140.00
2019-05-14T03:40:29.462Z,152.00
2019-05-14T03:41:30.564Z,172.00
2019-05-14T03:42:29.377Z,192.00
2019-05-14T03:43:29.748Z,216.00
2019-05-14T03:44:29.341Z,248.00
2019-05-14T03:45:30.022Z,284.00
2019-05-14T03:46:44.665Z,316.00
2019-05-14T03:47:29.888Z,352.00
2019-05-14T03:48:29.874Z,376.00
2019-05-14T03:49:29.189Z,408.00
2019-05-14T03:50:29.920Z,440.00
2019-05-14T03:51:29.980Z,468.00
2019-05-14T03:52:29.622Z,500.00
2019-05-14T03:53:29.814Z,528.00
2019-05-14T03:54:29.943Z,560.00
2019-05-14T03:55:29.462Z,600.00
2019-05-14T03:56:30.076Z,636.00
2019-05-14T03:57:29.454Z,672.00
2019-05-14T03:58:30.260Z,716.00
2019-05-14T03:59:29.565Z,756.00
2019-05-14T04:00:29.468Z,800.00
2019-05-14T04:01:30.012Z,852.00
2019-05-14T04:02:29.925Z,904.00
2019-05-14T04:03:29.755Z,968.00
2019-05-14T04:04:30.062Z,1020.00
2019-05-14T04:05:29.605Z,1064.00
2019-05-14T04:06:30.190Z,1096.00
2019-05-14T04:07:30.528Z,1128.00
2019-05-14T04:08:29.744Z,1172.00
2019-05-14T04:09:29.668Z,1232.00
2019-05-14T04:10:30.143Z,1304.00
2019-05-14T04:11:29.739Z,1380.00
2019-05-14T04:12:29.741Z,1468.00
2019-05-14T04:13:30.358Z,1552.00
2019-05-14T04:14:29.786Z,1636.00
2019-05-14T04:15:30.029Z,1712.00
2019-05-14T04:16:29.833Z,1796.00
2019-05-14T04:17:37.107Z,1876.00
2019-05-14T04:18:29.886Z,1956.00
2019-05-14T04:19:29.973Z,2028.00
2019-05-14T04:20:29.942Z,2096.00
2019-05-14T04:21:30.170Z,2164.00
2019-05-14T04:22:30.101Z,2224.00
2019-05-14T04:23:30.039Z,2268.00
2019-05-14T04:24:30.026Z,2324.00
2019-05-14T04:25:30.055Z,2384.00
2019-05-14T04:26:30.552Z,2432.00
2019-05-14T04:27:30.282Z,2484.00
2019-05-14T04:28:30.123Z,2576.00
2019-05-14T04:29:30.829Z,2708.00
2019-05-14T04:30:30.176Z,2844.00
2019-05-14T04:31:30.194Z,2940.00
2019-05-14T04:32:30.282Z,2976.00
2019-05-14T04:33:30.784Z,2956.00
2019-05-14T04:34:30.390Z,2928.00
2019-05-14T04:35:30.290Z,2900.00
2019-05-14T04:36:30.471Z,2900.00
2019-05-14T04:37:30.340Z,2904.00
2019-05-14T04:38:30.447Z,2920.00
2019-05-14T04:39:30.992Z,2896.00
2019-05-14T04:40:30.425Z,2792.00
2019-05-14T04:41:30.433Z,2724.00
2019-05-14T04:42:30.483Z,2716.00
2019-05-14T04:43:30.491Z,2712.00
2019-05-14T04:44:30.506Z,2720.00
2019-05-14T04:45:30.533Z,2736.00
2019-05-14T04:46:30.634Z,2776.00
2019-05-14T04:47:35.994Z,2828.00
2019-05-14T04:48:37.187Z,2864.00
2019-05-14T04:49:30.634Z,2892.00
2019-05-14T04:50:30.651Z,2920.00
2019-05-14T04:51:30.731Z,2968.00
2019-05-14T04:52:30.702Z,3044.00
2019-05-14T04:53:31.251Z,3192.00
2019-05-14T04:54:30.754Z,3420.00
2019-05-14T04:55:30.779Z,3708.00
2019-05-14T04:56:30.807Z,4020.00
2019-05-14T04:57:30.837Z,4360.00
2019-05-14T04:58:30.851Z,4632.00
2019-05-14T04:59:30.870Z,4728.00
2019-05-14T05:00:30.941Z,4808.00
2019-05-14T05:01:30.919Z,4892.00
2019-05-14T05:02:30.942Z,5076.00
2019-05-14T05:03:31.750Z,5244.00
2019-05-14T05:04:30.993Z,5384.00
2019-05-14T05:05:31.015Z,5568.00
2019-05-14T05:06:31.052Z,5752.00
2019-05-14T05:07:31.067Z,5880.00
2019-05-14T05:08:31.123Z,6032.00
2019-05-14T05:09:31.113Z,6100.00
2019-05-14T05:10:31.139Z,5372.00
2019-05-14T05:11:31.163Z,4316.00
2019-05-14T05:12:31.196Z,4088.00
2019-05-14T05:13:31.214Z,4380.00
2019-05-14T05:14:31.238Z,4908.00
2019-05-14T05:15:31.261Z,5140.00
2019-05-14T05:16:31.288Z,5892.00
2019-05-14T05:17:46.621Z,7016.00
2019-05-14T05:18:31.334Z,7524.00
2019-05-14T05:19:31.360Z,7588.00
2019-05-14T05:20:31.404Z,7720.00
2019-05-14T05:21:31.413Z,7712.00
2019-05-14T05:22:31.436Z,8108.00
2019-05-14T05:23:31.461Z,8284.00
2019-05-14T05:24:31.485Z,8400.00
2019-05-14T05:25:31.508Z,8612.00
2019-05-14T05:26:31.533Z,8996.00
2019-05-14T05:27:31.566Z,9460.00
2019-05-14T05:28:31.583Z,10112.00
2019-05-14T05:29:31.609Z,10900.00
2019-05-14T05:30:31.636Z,12560.00
2019-05-14T05:31:31.660Z,14976.00
2019-05-14T05:32:31.685Z,16960.00
2019-05-14T05:33:31.709Z,18336.00
2019-05-14T05:34:31.736Z,17312.00
2019-05-14T05:35:31.764Z,16608.00
2019-05-14T05:36:31.787Z,19104.00
2019-05-14T05:37:31.818Z,19776.00
2019-05-14T05:38:31.838Z,19712.00
2019-05-14T05:39:31.864Z,19456.00
2019-05-14T05:40:31.891Z,18496.00
2019-05-14T05:41:31.917Z,26208.00
2019-05-14T05:42:31.945Z,29824.00
2019-05-14T05:43:31.970Z,40128.00
2019-05-14T05:44:31.995Z,35936.00
2019-05-14T05:45:32.021Z,37952.00
2019-05-14T05:46:32.047Z,35936.00
2019-05-14T05:47:32.072Z,32992.00
2019-05-14T05:48:32.098Z,31776.00
2019-05-14T05:49:32.125Z,30112.00
2019-05-14T05:50:32.151Z,27872.00
2019-05-14T05:51:32.176Z,27776.00
2019-05-14T05:52:32.205Z,27040.00
2019-05-14T05:53:32.231Z,24288.00
2019-05-14T05:54:32.261Z,22816.00
2019-05-14T05:55:32.284Z,24672.00
2019-05-14T05:56:32.311Z,26400.00
2019-05-14T05:57:32.335Z,23872.00
2019-05-14T05:58:32.361Z,21536.00
2019-05-14T05:59:32.391Z,22976.00
2019-05-14T06:00:32.417Z,23584.00
2019-05-14T06:01:42.991Z,23648.00
2019-05-14T06:02:32.472Z,22848.00
2019-05-14T06:03:32.535Z,21088.00
2019-05-14T06:04:32.532Z,20544.00
2019-05-14T06:05:32.549Z,19872.00
2019-05-14T06:06:32.583Z,20608.00
2019-05-14T06:07:32.605Z,21664.00
2019-05-14T06:08:32.630Z,20544.00
2019-05-14T06:09:32.660Z,19072.00
2019-05-14T06:10:32.688Z,19872.00
2019-05-14T06:11:32.712Z,20800.00
2019-05-14T06:12:32.741Z,20960.00
2019-05-14T06:13:32.763Z,21056.00
2019-05-14T06:14:32.792Z,20128.00
2019-05-14T06:15:44.538Z,19936.00
2019-05-14T06:16:32.850Z,20800.00
2019-05-14T06:17:32.875Z,21152.00
2019-05-14T06:18:34.541Z,21376.00
2019-05-14T06:19:32.928Z,22560.00
2019-05-14T06:20:32.956Z,24768.00
2019-05-14T06:21:32.983Z,24800.00
2019-05-14T06:22:33.017Z,21952.00
2019-05-14T06:23:33.044Z,21824.00
2019-05-14T06:24:33.072Z,24000.00
2019-05-14T06:25:33.094Z,24960.00
2019-05-14T06:26:33.120Z,25696.00
2019-05-14T06:27:33.152Z,25792.00
2019-05-14T06:28:33.779Z,26592.00
2019-05-14T06:29:33.207Z,27328.00
2019-05-14T06:30:33.233Z,28576.00
2019-05-14T06:31:33.264Z,33120.00
2019-05-14T06:32:33.293Z,35744.00
2019-05-14T06:33:33.318Z,35712.00
2019-05-14T06:34:33.346Z,41760.00
2019-05-14T06:35:33.385Z,48320.00
2019-05-14T06:36:33.413Z,42944.00
2019-05-14T06:37:33.432Z,31904.00
2019-05-14T06:38:33.459Z,27008.00
2019-05-14T06:39:33.488Z,25152.00
2019-05-14T06:40:33.520Z,23744.00
2019-05-14T06:41:33.547Z,21984.00
2019-05-14T06:42:33.594Z,20480.00
2019-05-14T06:43:33.601Z,19744.00
2019-05-14T06:44:33.631Z,19168.00
2019-05-14T06:45:33.659Z,18656.00
2019-05-14T06:46:33.690Z,18592.00
2019-05-14T06:47:33.716Z,18592.00
2019-05-14T06:48:34.903Z,18656.00
2019-05-14T06:49:33.769Z,18784.00
2019-05-14T06:50:33.805Z,19168.00
2019-05-14T06:51:33.837Z,20864.00
2019-05-14T06:52:33.857Z,29248.00
2019-05-14T06:53:33.887Z,42752.00
2019-05-14T06:54:33.922Z,48992.00
2019-05-14T06:55:33.945Z,48288.00
2019-05-14T06:56:33.973Z,50560.00
2019-05-14T06:57:34.001Z,51712.00
2019-05-14T06:58:34.033Z,52000.00
2019-05-14T06:59:34.063Z,52416.00
2019-05-14T07:00:34.092Z,53760.00
2019-05-14T07:01:34.121Z,55008.00
2019-05-14T07:02:34.148Z,56096.00
2019-05-14T07:03:34.183Z,56576.00
2019-05-14T07:04:34.207Z,54112.00
2019-05-14T07:05:34.244Z,43552.00
2019-05-14T07:06:34.266Z,49440.00
2019-05-14T07:07:34.307Z,57920.00
2019-05-14T07:08:34.326Z,61856.00
2019-05-14T07:09:34.356Z,61664.00
2019-05-14T07:10:34.388Z,63328.00
2019-05-14T07:11:34.415Z,63776.00
2019-05-14T07:12:34.445Z,63872.00
2019-05-14T07:13:34.476Z,64000.00
2019-05-14T07:14:34.511Z,65472.00
2019-05-14T07:15:34.536Z,65888.00
2019-05-14T07:16:34.568Z,65280.00
2019-05-14T07:17:34.603Z,66592.00
2019-05-14T07:18:46.399Z,65120.00
2019-05-14T07:19:34.660Z,62944.00
2019-05-14T07:20:34.690Z,62048.00
2019-05-14T07:21:34.718Z,64704.00
2019-05-14T07:22:34.747Z,66080.00
2019-05-14T07:23:34.776Z,63424.00
2019-05-14T07:24:37.207Z,65920.00
2019-05-14T07:25:34.842Z,67584.00
2019-05-14T07:26:34.871Z,66656.00
2019-05-14T07:27:34.899Z,67136.00
2019-05-14T07:28:34.934Z,68064.00
2019-05-14T07:29:34.960Z,67648.00
2019-05-14T07:30:34.992Z,68288.00
2019-05-14T07:31:35.034Z,67392.00
2019-05-14T07:33:29.378Z,68128.00
2019-05-14T07:34:28.284Z,68928.00
2019-05-14T07:35:28.869Z,69312.00
2019-05-14T07:36:29.316Z,70624.00
2019-05-14T07:37:28.553Z,70816.00
2019-05-14T07:38:28.407Z,69824.00
2019-05-14T07:39:29.128Z,64512.00
2019-05-14T07:40:29.047Z,70752.00
2019-05-14T07:41:28.592Z,71200.00
2019-05-14T07:42:28.917Z,70208.00
2019-05-14T07:43:28.790Z,69344.00
2019-05-14T07:44:29.651Z,70656.00
2019-05-14T07:45:28.728Z,70688.00
2019-05-14T07:46:28.403Z,71424.00
2019-05-14T07:47:29.143Z,71328.00
2019-05-14T07:48:28.844Z,70528.00
2019-05-14T07:49:29.047Z,72416.00
2019-05-14T07:50:28.946Z,73600.00
2019-05-14T07:51:28.379Z,73472.00
2019-05-14T07:52:28.590Z,72960.00
2019-05-14T07:53:36.140Z,72384.00
2019-05-14T07:54:28.487Z,72224.00
2019-05-14T07:55:28.895Z,72384.00
2019-05-14T07:56:29.267Z,72192.00
2019-05-14T07:57:28.623Z,70208.00
2019-05-14T07:58:28.494Z,68544.00
2019-05-14T07:59:28.852Z,72512.00
2019-05-14T08:00:28.665Z,72960.00
2019-05-14T08:01:28.520Z,71808.00
2019-05-14T08:02:29.081Z,71584.00
2019-05-14T08:03:28.706Z,71488.00
2019-05-14T08:04:29.128Z,72000.00
2019-05-14T08:05:28.884Z,74528.00
2019-05-14T08:06:28.682Z,74368.00
2019-05-14T08:07:28.723Z,70432.00
2019-05-14T08:08:29.408Z,73280.00
2019-05-14T08:09:28.789Z,74304.00
2019-05-14T08:10:29.054Z,70816.00
2019-05-14T08:11:28.854Z,71552.00
2019-05-14T08:12:28.880Z,73984.00
2019-05-14T08:13:28.913Z,73504.00
2019-05-14T08:14:33.650Z,73952.00
2019-05-14T08:15:28.987Z,72864.00
2019-05-14T08:16:29.234Z,70560.00
2019-05-14T08:17:29.050Z,74304.00
2019-05-14T08:18:29.367Z,74080.00
2019-05-14T08:19:31.529Z,73280.00
2019-05-14T08:20:29.150Z,74016.00
2019-05-14T08:21:29.484Z,75552.00
2019-05-14T08:22:29.342Z,73728.00
2019-05-14T08:23:29.249Z,73248.00
2019-05-14T08:24:30.074Z,73312.00
2019-05-14T08:25:29.385Z,73952.00
2019-05-14T08:26:29.546Z,73984.00
2019-05-14T08:27:31.064Z,73408.00
2019-05-14T08:28:29.420Z,74848.00
2019-05-14T08:29:29.453Z,74624.00
2019-05-14T08:30:29.485Z,74528.00
2019-05-14T08:31:29.527Z,64608.00
2019-05-14T08:32:29.561Z,37888.00
2019-05-14T08:33:29.587Z,73728.00
2019-05-14T08:34:32.322Z,44480.00
2019-05-14T08:35:33.955Z,77088.00
2019-05-14T08:36:29.694Z,77536.00
2019-05-14T08:37:29.724Z,77856.00
2019-05-14T08:38:29.760Z,77472.00
2019-05-14T08:39:29.792Z,76544.00
2019-05-14T08:40:29.893Z,78656.00
2019-05-14T08:41:29.860Z,21216.00
2019-05-14T08:42:34.199Z,76352.00
2019-05-14T08:43:29.930Z,79648.00
2019-05-14T08:44:29.962Z,81632.00
2019-05-14T08:45:30.000Z,83040.00
2019-05-14T08:46:30.150Z,83648.00
2019-05-14T08:47:30.075Z,19936.00
2019-05-14T08:48:30.108Z,86208.00
2019-05-14T08:49:42.375Z,86080.00
2019-05-14T08:50:30.167Z,85952.00
2019-05-14T08:51:30.210Z,84896.00
2019-05-14T08:52:30.238Z,84992.00
2019-05-14T08:53:30.272Z,84928.00
2019-05-14T08:54:30.305Z,80704.00
2019-05-14T08:55:30.341Z,75744.00
2019-05-14T08:56:30.376Z,75968.00
2019-05-14T08:57:30.481Z,78528.00
2019-05-14T08:58:30.469Z,80608.00
2019-05-14T08:59:30.484Z,81568.00
2019-05-14T09:00:30.521Z,55360.00
2019-05-14T09:01:30.547Z,83712.00
2019-05-14T09:02:30.585Z,85984.00
2019-05-14T09:03:30.617Z,83488.00
2019-05-14T09:04:30.864Z,83328.00
2019-05-14T09:05:30.686Z,82144.00
2019-05-14T09:06:30.730Z,75360.00
2019-05-14T09:07:30.760Z,17568.00
2019-05-14T09:08:30.790Z,15632.00
2019-05-14T09:09:30.832Z,14944.00
2019-05-14T09:10:30.862Z,32672.00
2019-05-14T09:11:35.785Z,39680.00
2019-05-14T09:12:30.934Z,26944.00
2019-05-14T09:13:30.962Z,93664.00
2019-05-14T09:14:30.994Z,85280.00
2019-05-14T09:15:31.030Z,20256.00
2019-05-14T09:17:31.103Z,14004.00
2019-05-14T09:18:31.131Z,13892.00
2019-05-14T09:19:31.174Z,14276.00
2019-05-14T09:20:31.194Z,15472.00
2019-05-14T09:21:31.228Z,17108.00
2019-05-14T09:22:31.274Z,95136.00
2019-05-14T09:23:31.294Z,93920.00
2019-05-14T09:24:31.329Z,93184.00
2019-05-14T09:25:31.373Z,91328.00
2019-05-14T09:26:31.389Z,92960.00
2019-05-14T09:27:31.422Z,79264.00
2019-05-14T09:28:34.076Z,14964.00
2019-05-14T09:29:31.484Z,94336.00
2019-05-14T09:30:31.520Z,75104.00
2019-05-14T09:31:31.553Z,35776.00
2019-05-14T09:32:31.580Z,17004.00
2019-05-14T09:33:31.611Z,15148.00
2019-05-14T09:34:31.644Z,13036.00
2019-05-14T09:35:31.674Z,13112.00
2019-05-14T09:36:31.709Z,91392.00
2019-05-14T09:37:31.742Z,95168.00
2019-05-14T09:38:31.778Z,92544.00
2019-05-14T09:39:31.809Z,96928.00
2019-05-14T09:40:31.835Z,97408.00
2019-05-14T09:41:31.864Z,20864.00
2019-05-14T09:42:31.896Z,18752.00
2019-05-14T09:43:31.934Z,17664.00
2019-05-14T09:44:31.967Z,17416.00
2019-05-14T09:45:31.993Z,16228.00
2019-05-14T09:46:33.238Z,18208.00
2019-05-14T09:47:32.055Z,16304.00
2019-05-14T09:48:32.089Z,15444.00
2019-05-14T09:49:32.119Z,14272.00
2019-05-14T09:50:32.149Z,12644.00
2019-05-14T09:52:32.212Z,11396.00
2019-05-14T09:53:32.242Z,11272.00
2019-05-14T09:54:32.273Z,11752.00
2019-05-14T09:55:32.305Z,13156.00
2019-05-14T09:56:32.333Z,16568.00
2019-05-14T09:57:32.368Z,84256.00
2019-05-14T09:58:32.393Z,92192.00
2019-05-14T09:59:32.427Z,19360.00
2019-05-14T10:00:32.457Z,76160.00
2019-05-14T10:01:32.487Z,84768.00
2019-05-14T10:02:32.520Z,18560.00
2019-05-14T10:03:32.551Z,70208.00
2019-05-14T10:04:32.579Z,84608.00
2019-05-14T10:05:32.607Z,89024.00
2019-05-14T10:06:32.636Z,16316.00
2019-05-14T10:07:32.669Z,13968.00
2019-05-14T10:08:32.712Z,15024.00
2019-05-14T10:09:32.731Z,16036.00
2019-05-14T10:10:32.760Z,15012.00
2019-05-14T10:11:32.787Z,12640.00
2019-05-14T10:12:32.818Z,11488.00
2019-05-14T10:13:32.847Z,11260.00
2019-05-14T10:14:32.879Z,11880.00
2019-05-14T10:15:32.910Z,12632.00
2019-05-14T10:16:32.943Z,13164.00
2019-05-14T10:17:32.968Z,31232.00
2019-05-14T10:18:32.998Z,81824.00
2019-05-14T10:19:33.031Z,81600.00
2019-05-14T10:20:41.221Z,15512.00
2019-05-14T10:21:33.091Z,83968.00
2019-05-14T10:22:33.126Z,82496.00
2019-05-14T10:23:33.158Z,81152.00
2019-05-14T10:24:33.182Z,26464.00
2019-05-14T10:25:33.210Z,85760.00
2019-05-14T10:26:33.246Z,24320.00
2019-05-14T10:27:33.271Z,17492.00
2019-05-14T10:28:33.305Z,24000.00
2019-05-14T10:29:33.329Z,15624.00
2019-05-14T10:30:33.360Z,13216.00
2019-05-14T10:31:33.395Z,13164.00
2019-05-14T10:32:33.423Z,13528.00
2019-05-14T10:33:33.451Z,14168.00
2019-05-14T10:34:33.481Z,17192.00
2019-05-14T10:35:33.522Z,85664.00
2019-05-14T10:36:33.544Z,84000.00
2019-05-14T10:37:33.576Z,84640.00
2019-05-14T10:38:33.607Z,76736.00
2019-05-14T10:39:33.641Z,24320.00
2019-05-14T10:40:33.677Z,76864.00
2019-05-14T10:41:33.702Z,49696.00
2019-05-14T10:42:33.725Z,27296.00
2019-05-14T10:43:33.756Z,15876.00
2019-05-14T10:44:33.789Z,21312.00
2019-05-14T10:45:33.817Z,14032.00
2019-05-14T10:46:33.851Z,75296.00
2019-05-14T10:47:33.881Z,30400.00
2019-05-14T10:48:33.923Z,74784.00
2019-05-14T10:49:33.945Z,27616.00
2019-05-14T10:50:40.610Z,17712.00
2019-05-14T10:51:33.999Z,16604.00
2019-05-14T10:52:34.034Z,14216.00
2019-05-14T10:53:34.072Z,15396.00
2019-05-14T10:54:34.096Z,75552.00
2019-05-14T10:55:34.131Z,14864.00
2019-05-14T10:56:34.156Z,13812.00
2019-05-14T10:57:34.186Z,21184.00
2019-05-14T10:58:34.219Z,80096.00
2019-05-14T10:59:34.251Z,79264.00
2019-05-14T11:00:34.278Z,80480.00
2019-05-14T11:01:34.408Z,77856.00
2019-05-14T11:02:34.341Z,75552.00
2019-05-14T11:03:34.372Z,74912.00
2019-05-14T11:04:34.748Z,76896.00
2019-05-14T11:05:34.432Z,78816.00
2019-05-14T11:06:34.464Z,78144.00
2019-05-14T11:07:34.494Z,77920.00
2019-05-14T11:08:34.531Z,34304.00
2019-05-14T11:09:34.557Z,75840.00
2019-05-14T11:10:34.618Z,72096.00
2019-05-14T11:11:34.622Z,14120.00
2019-05-14T11:12:34.655Z,15592.00
2019-05-14T11:13:34.684Z,32416.00
2019-05-14T11:14:34.716Z,15760.00
2019-05-14T11:15:34.746Z,15092.00
2019-05-14T11:16:34.776Z,69440.00
2019-05-14T11:17:34.809Z,23680.00
2019-05-14T11:18:34.843Z,16232.00
2019-05-14T11:19:34.874Z,13836.00
2019-05-14T11:20:34.904Z,67136.00
2019-05-14T11:21:34.935Z,76928.00
2019-05-14T11:22:34.967Z,47104.00
2019-05-14T11:23:35.017Z,47584.00
2019-05-14T11:24:35.034Z,14152.00
2019-05-14T11:25:35.063Z,12584.00
2019-05-14T11:26:35.096Z,22784.00
2019-05-14T11:27:35.131Z,51872.00
2019-05-14T11:28:35.156Z,29824.00
2019-05-14T11:29:35.190Z,25376.00
2019-05-14T11:30:35.228Z,25152.00
2019-05-14T11:31:35.252Z,24576.00
2019-05-14T11:32:35.283Z,23968.00
2019-05-14T11:33:35.314Z,23328.00
2019-05-14T11:34:35.348Z,22752.00
2019-05-14T11:35:35.381Z,22016.00
2019-05-14T11:36:35.412Z,20928.00
2019-05-14T11:37:35.443Z,20416.00
2019-05-14T11:38:37.598Z,15976.00
2019-05-14T11:39:37.817Z,19840.00
2019-05-14T11:40:35.540Z,9492.00
2019-05-14T11:41:35.578Z,19712.00
2019-05-14T11:42:35.620Z,19776.00
2019-05-14T11:43:35.648Z,20096.00
2019-05-14T11:44:38.012Z,20320.00
2019-05-14T11:45:35.703Z,20512.00
2019-05-14T11:46:47.182Z,21120.00
2019-05-14T11:47:37.889Z,22176.00
2019-05-14T11:48:35.801Z,12812.00
2019-05-14T11:49:35.833Z,13424.00
2019-05-14T11:50:35.874Z,14328.00
2019-05-14T11:51:58.817Z,23808.00
2019-05-14T11:52:35.937Z,14312.00
2019-05-14T11:53:38.325Z,20640.00
2019-05-14T11:54:40.633Z,22464.00
2019-05-14T11:55:38.622Z,22016.00
2019-05-14T11:56:41.509Z,22208.00
2019-05-14T11:57:36.098Z,21920.00
2019-05-14T11:58:36.129Z,20736.00
2019-05-14T11:59:36.179Z,20256.00
2019-05-14T12:00:38.563Z,19872.00
2019-05-14T12:01:39.047Z,19616.00
2019-05-14T12:02:38.529Z,19712.00
2019-05-14T12:03:39.033Z,20096.00
2019-05-14T12:04:36.333Z,20512.00
2019-05-14T12:05:38.705Z,20576.00
2019-05-14T12:06:39.088Z,20736.00
2019-05-14T12:07:38.651Z,21312.00
2019-05-14T12:08:36.471Z,21440.00
2019-05-14T12:09:38.887Z,20064.00
2019-05-14T12:10:38.698Z,20160.00
2019-05-14T12:11:38.542Z,20768.00
2019-05-14T12:12:36.599Z,19840.00
2019-05-14T12:13:39.168Z,19104.00
2019-05-14T12:14:38.021Z,18624.00
2019-05-14T12:15:38.878Z,18496.00
2019-05-14T12:16:39.785Z,18624.00